Muskoka Airport
CYQA : now visible

Airfield :











YOU CAN JOIN US ON...

 
LOGIN :

Register | Disclaimer

   EN    FR    IT 

 









Legend :    VFR   Marginal VFR   IFR   Intensive IFR   Very Intensive IFR
Visi :
Ceiling :
>= 8 km
>= 3000ft
5 to 8 km
1000 to 3000 ft
1500m to 5 km
500 to 1000 ft
800 to 1500m
200 to 500 ft
< 800m
< 200 ft
Symbols :   Thunderstorms  Fog  Heavy snow  Heavy precipitations  Wind > 20 kt






- Airport Elevation : 925 ft
- IATA code : YQA


CYQA - Muskoka

CURRENT METAR :
  • 180400Z AUTO 14004KT 9SM CLR 22/21 A3002 RMK SLP164 DENSITY ALT 1900FT

EXPIRED METARs :
  • 180300Z AUTO 13003KT 120V180 9SM CLR 22/21 A3001 RMK SLP162 DENSITY ALT 1900FT
  • 180200Z AUTO 00000KT 9SM FEW047 22/21 A3000 RMK SLP160 DENSITY ALT 1900FT
  • 180100Z AUTO 12002KT 9SM CLR 24/21 A2998 RMK SLP153 DENSITY ALT 2100FT
  • 180000Z AUTO 25002KT 9SM FEW066 27/20 A2997 RMK SLP150 DENSITY ALT 2500FT

Expired Forecast.
CZYZ FIR / North America



MET'MAP, your aeronautical weather chart ! - Copyright ORBIFLY December 2007 - Disclaimer

ORBIFLY MET'MAP TEAM :

Programming & Development : Alexandra Zaïnal
Original concept : Baudouin d'Aumeries
Technical & hardware support : Manuel Goepfert
Assistance : Marc-Olivier Méhu




SOURCES & CREDITS :

   NOAA       Earth
Advisory